MP03 weather

La Cabezona Airport
Guarumal, Chiriquí Province, Panama

Public forecast

Using degrees Celsius for public forecast. Weather courtesy of forecast.io.

METAR (pilot weather report)

Closest report is Enrique Malek International Airport, 4.9 nm (9.1 km) ENE. Retrieved 2019/05/25 03:00 UTC (1 hour ago):

MPDA 250300Z 25002KT 9999 FEW018 SCT080 25/24 Q1011

TAF (pilot weather forecast)

Forecast is more than 12 hours old.

Closest forecast is Enrique Malek International Airport, 4.9 nm (9.1 km) ENE. Retrieved 2019/05/24 00:18 UTC (1 day ago):

TAF COR TAF COR MPDA 242300Z 2500/2512 24008KT 9999 SCT018 SCT090 TEMPO 2508/2512 SCT015CB BKN070